Terminal Aerodrome Forecast
Issued by NWS Charleston, SC

Home | Current Version | Previous Version | Text Only | Print | Product List | Glossary On
Versions: 1 2 3 4 5 6 7 8 9 10 11 12 13 14 15 16 17 18 19 20 21
000
FTUS42 KCHS 210700 AAA
TAFCHS
TAF AMD
KCHS 210731Z 2108/2206 04009KT P6SM OVC007
      TEMPO 2109/2112 -RA BKN005 OVC008
     FM211200 02008KT P6SM -RA BKN006 OVC012
     FM211700 03008KT P6SM VCSH SCT006 OVC015
     FM220000 04007KT 6SM BR VCSH OVC006=

USA.gov is the U.S. government's official web portal to all federal, state and local government web resources and services.